Time;durP1;ratioP1;P1;durP2;ratioP2;P2;SDS_P1;SDS_P2;PMS_P1;PMS_P2;Temp;Humidity;BMP_temperature;BMP_pressure;BME280_temperature;BME280_humidity;BME280_pressure;Samples;Min_cycle;Max_cycle;Signal;HPM_P1;HPM_P2
2022/05/07 00:00:10;;;;;;;;;;;;;;;24.61;21.71;100465.09;5137479;27;20242;-74
2022/05/07 00:02:35;;;;;;;;;;;;;;;24.61;21.70;100462.38;5137095;27;19934;-73
2022/05/07 00:05:01;;;;;;;;;;;;;;;24.61;21.37;100462.38;5137493;27;19920;-74
2022/05/07 00:07:26;;;;;;;;;;;;;;;24.61;21.74;100458.81;5137370;27;20421;-74
2022/05/07 00:09:52;;;;;;;;;;;;;;;24.60;21.69;100451.72;5137377;27;20411;-73
2022/05/07 00:12:17;;;;;;;;;;;;;;;24.60;21.61;100460.72;5137322;27;20025;-75
2022/05/07 00:14:42;;;;;;;;;;;;;;;24.61;21.70;100450.59;5136811;27;19925;-73
2022/05/07 00:19:52;;;;;;;;;;;;;;;24.58;21.53;100460.19;5136950;27;20261;-74
2022/05/07 00:22:17;;;;;;;;;;;;;;;24.59;21.49;100458.28;5137108;27;19925;-74
2022/05/07 00:24:42;;;;;;;;;;;;;;;24.58;21.61;100453.88;5136656;27;19924;-74
2022/05/07 00:27:08;;;;;;;;;;;;;;;24.59;21.55;100450.06;5137102;27;19922;-74
2022/05/07 00:29:33;;;;;;;;;;;;;;;24.57;21.55;100446.81;5136219;27;19915;-74
2022/05/07 00:31:58;;;;;;;;;;;;;;;24.59;21.51;100452.81;5136915;27;20361;-74
2022/05/07 00:34:24;;;;;;;;;;;;;;;24.58;21.45;100451.16;5136429;27;20273;-74
2022/05/07 00:36:49;;;;;;;;;;;;;;;24.58;21.49;100454.72;5136490;27;19915;-73
2022/05/07 00:39:15;;;;;;;;;;;;;;;24.57;21.28;100438.63;5136783;27;20021;-74
2022/05/07 00:41:40;;;;;;;;;;;;;;;24.57;21.46;100435.88;5136835;27;20021;-75
2022/05/07 00:44:08;;;;;;;;;;;;;;;24.55;21.45;100431.50;5136424;27;19915;-74
2022/05/07 00:46:33;;;;;;;;;;;;;;;24.57;21.25;100419.50;5136664;27;19922;-73
2022/05/07 00:48:59;;;;;;;;;;;;;;;24.55;21.39;100415.13;5136177;27;19915;-74
2022/05/07 00:51:33;;;;;;;;;;;;;;;24.55;21.17;100414.31;5136571;27;19964;-74
2022/05/07 00:53:59;;;;;;;;;;;;;;;24.54;21.22;100427.16;5119334;27;19922;-74
2022/05/07 00:56:24;;;;;;;;;;;;;;;24.54;21.30;100412.66;5136387;27;20280;-75
2022/05/07 00:58:50;;;;;;;;;;;;;;;24.53;21.21;100409.09;5117719;27;20362;-73
2022/05/07 01:01:16;;;;;;;;;;;;;;;24.55;21.12;100411.56;5135877;27;20010;-74
2022/05/07 01:03:41;;;;;;;;;;;;;;;24.54;21.04;100415.38;5135857;27;20006;-74
2022/05/07 01:06:06;;;;;;;;;;;;;;;24.53;21.11;100417.28;5136465;27;19916;-74
2022/05/07 01:08:33;;;;;;;;;;;;;;;24.53;21.23;100417.28;5136478;27;20362;-74
2022/05/07 01:10:58;;;;;;;;;;;;;;;24.52;21.18;100418.38;5136287;27;19923;-74
2022/05/07 01:13:23;;;;;;;;;;;;;;;24.51;20.98;100411.28;5117863;27;19915;-74
2022/05/07 01:15:53;;;;;;;;;;;;;;;24.52;21.25;100412.09;5117614;27;19926;-74
2022/05/07 01:18:18;;;;;;;;;;;;;;;24.51;20.92;100411.28;5136106;27;19919;-74
2022/05/07 01:20:43;;;;;;;;;;;;;;;24.52;21.17;100410.16;5135880;27;19930;-74
2022/05/07 01:23:09;;;;;;;;;;;;;;;24.51;21.22;100405.00;5135509;27;20426;-74
2022/05/07 01:25:34;;;;;;;;;;;;;;;24.50;21.09;100398.72;5113704;28;19926;-74
2022/05/07 01:27:59;;;;;;;;;;;;;;;24.51;21.02;100402.28;5115353;28;19923;-75
2022/05/07 01:30:24;;;;;;;;;;;;;;;24.49;21.08;100402.56;5115202;28;20332;-73
2022/05/07 01:32:50;;;;;;;;;;;;;;;24.49;21.01;100391.63;5115150;28;19916;-73
2022/05/07 01:35:15;;;;;;;;;;;;;;;24.50;21.04;100389.72;5115138;28;20410;-73
2022/05/07 01:37:40;;;;;;;;;;;;;;;24.48;21.00;100384.53;5115116;28;19915;-74
2022/05/07 01:40:06;;;;;;;;;;;;;;;24.48;21.07;100379.06;5114394;28;19916;-75
2022/05/07 01:42:31;;;;;;;;;;;;;;;24.48;20.79;100368.13;5114825;28;19922;-74
2022/05/07 01:44:56;;;;;;;;;;;;;;;24.49;20.97;100377.13;5097322;28;20405;-74
2022/05/07 01:50:06;;;;;;;;;;;;;;;24.48;20.67;100373.59;5094297;28;19969;-73
2022/05/07 01:52:31;;;;;;;;;;;;;;;24.49;20.85;100379.88;5094408;28;20284;-74
2022/05/07 01:54:57;;;;;;;;;;;;;;;24.47;20.85;100385.59;5094160;28;19916;-73
2022/05/07 01:57:22;;;;;;;;;;;;;;;24.47;20.90;100377.41;5094207;28;19923;-74
2022/05/07 01:59:47;;;;;;;;;;;;;;;24.47;20.93;100363.75;5094469;28;19923;-75
2022/05/07 02:02:12;;;;;;;;;;;;;;;24.47;20.85;100363.75;5094319;28;20388;-73
2022/05/07 02:04:39;;;;;;;;;;;;;;;24.46;20.72;100359.41;5094248;28;19929;-75
2022/05/07 02:07:04;;;;;;;;;;;;;;;24.47;20.74;100360.22;5094057;28;19963;-74
2022/05/07 02:09:29;;;;;;;;;;;;;;;24.45;20.91;100363.22;5094022;28;19944;-73
2022/05/07 02:11:55;;;;;;;;;;;;;;;24.45;20.86;100357.75;5094245;28;19923;-75
2022/05/07 02:14:20;;;;;;;;;;;;;;;24.45;20.71;100357.75;5094283;28;19947;-74
2022/05/07 02:16:45;;;;;;;;;;;;;;;24.45;20.74;100346.84;5093757;28;20370;-75
2022/05/07 02:19:11;;;;;;;;;;;;;;;24.44;20.66;100345.22;5093806;28;19923;-73
2022/05/07 02:21:36;;;;;;;;;;;;;;;24.44;20.86;100360.78;5094138;28;19941;-75
2022/05/07 02:24:01;;;;;;;;;;;;;;;24.46;20.68;100347.69;5092922;28;20374;-73
2022/05/07 02:26:26;;;;;;;;;;;;;;;24.46;20.74;100353.94;5073664;28;19924;-74
2022/05/07 02:28:51;;;;;;;;;;;;;;;24.44;20.81;100345.22;5073792;28;19920;-74
2022/05/07 02:31:17;;;;;;;;;;;;;;;24.44;20.96;100345.22;5073905;28;20365;-74
2022/05/07 02:33:42;;;;;;;;;;;;;;;24.44;20.82;100334.28;5073437;28;19916;-75
2022/05/07 02:36:07;;;;;;;;;;;;;;;24.45;20.78;100340.56;5073761;28;19920;-73
2022/05/07 02:38:33;;;;;;;;;;;;;;;24.44;20.88;100339.75;5073320;28;20389;-73
2022/05/07 02:43:42;;;;;;;;;;;;;;;24.43;20.99;100340.84;5079911;28;20359;-73
2022/05/07 02:46:07;;;;;;;;;;;;;;;24.42;20.87;100330.19;5093932;28;19963;-74
2022/05/07 02:48:35;;;;;;;;;;;;;;;24.43;20.71;100332.66;5093609;28;20282;-75
2022/05/07 02:51:01;;;;;;;;;;;;;;;24.42;20.92;100336.47;5093882;28;19944;-74
2022/05/07 02:53:29;;;;;;;;;;;;;;;24.44;20.96;100334.28;5097391;28;20390;-74
2022/05/07 02:55:54;;;;;;;;;;;;;;;24.44;20.89;100322.53;5097430;28;19920;-74
2022/05/07 02:58:19;;;;;;;;;;;;;;;24.43;20.93;100331.84;5097448;28;19916;-73
2022/05/07 03:00:45;;;;;;;;;;;;;;;24.42;20.73;100325.53;5097343;28;19943;-77
2022/05/07 03:03:10;;;;;;;;;;;;;;;24.42;20.96;100320.09;5097291;28;19916;-72
2022/05/07 03:05:36;;;;;;;;;;;;;;;24.42;21.09;100322.81;5097327;28;19923;-74
2022/05/07 03:08:01;;;;;;;;;;;;;;;24.42;20.95;100314.63;5097636;28;19924;-74
2022/05/07 03:10:26;;;;;;;;;;;;;;;24.41;20.75;100313.00;5097346;28;19927;-74
2022/05/07 03:12:51;;;;;;;;;;;;;;;24.42;21.23;100313.81;5097655;28;19920;-74
2022/05/07 03:15:17;;;;;;;;;;;;;;;24.41;20.94;100309.47;5097645;28;20397;-74
2022/05/07 03:17:42;;;;;;;;;;;;;;;24.41;21.07;100312.19;5097578;28;19926;-76
2022/05/07 03:20:11;;;;;;;;;;;;;;;24.41;21.05;100313.00;5078871;28;20389;-73
2022/05/07 03:22:36;;;;;;;;;;;;;;;24.41;20.94;100314.94;5097012;28;19959;-74
2022/05/07 03:25:02;;;;;;;;;;;;;;;24.40;21.15;100305.91;5088133;28;19935;-74
2022/05/07 03:27:29;;;;;;;;;;;;;;;24.42;21.11;100311.06;5117507;28;19969;-75
2022/05/07 03:29:54;;;;;;;;;;;;;;;24.41;21.10;100314.94;5117677;28;19968;-74
2022/05/07 03:32:20;;;;;;;;;;;;;;;24.40;21.10;100305.09;5117217;28;19994;-73
2022/05/07 03:34:45;;;;;;;;;;;;;;;24.39;21.08;100307.00;5117408;28;19916;-74
2022/05/07 03:37:10;;;;;;;;;;;;;;;24.40;21.27;100305.09;5117469;28;20331;-74
2022/05/07 03:39:36;;;;;;;;;;;;;;;24.40;21.13;100294.97;5117083;28;19939;-74
2022/05/07 03:42:01;;;;;;;;;;;;;;;24.40;21.25;100294.16;5117452;28;19920;-73
2022/05/07 03:44:26;;;;;;;;;;;;;;;24.40;21.26;100299.63;5105300;28;19916;-74
2022/05/07 03:46:52;;;;;;;;;;;;;;;24.40;21.13;100299.63;5096938;28;20278;-74
2022/05/07 03:49:17;;;;;;;;;;;;;;;24.39;21.19;100298.81;5096507;28;19927;-74
2022/05/07 03:54:27;;;;;;;;;;;;;;;24.40;21.41;100296.91;5096434;28;19927;-75
2022/05/07 03:56:52;;;;;;;;;;;;;;;24.40;21.34;100297.69;5096356;28;19920;-73
2022/05/07 03:59:17;;;;;;;;;;;;;;;24.39;21.34;100287.88;5096703;28;19961;-74
2022/05/07 04:01:42;;;;;;;;;;;;;;;24.39;21.38;100287.88;5096535;28;20309;-74
2022/05/07 04:04:08;;;;;;;;;;;;;;;24.39;21.55;100293.34;5096092;28;19916;-73
2022/05/07 04:06:33;;;;;;;;;;;;;;;24.40;21.59;100288.69;5096420;28;19973;-74
2022/05/07 04:08:58;;;;;;;;;;;;;;;24.40;21.71;100289.50;5096127;28;19916;-74
2022/05/07 04:11:23;;;;;;;;;;;;;;;24.38;21.62;100288.97;5096047;28;19916;-74
2022/05/07 04:13:49;;;;;;;;;;;;;;;24.40;21.71;100280.50;5077893;28;19973;-73
2022/05/07 04:16:14;;;;;;;;;;;;;;;24.40;21.75;100281.31;5078110;28;19961;-74
2022/05/07 04:18:39;;;;;;;;;;;;;;;24.39;21.58;100282.44;5096318;28;19916;-74
2022/05/07 04:21:04;;;;;;;;;;;;;;;24.39;21.94;100276.97;5095920;28;20290;-73
2022/05/07 04:23:30;;;;;;;;;;;;;;;24.39;21.96;100276.97;5095799;28;19916;-76
2022/05/07 04:25:55;;;;;;;;;;;;;;;24.40;21.76;100272.31;5095662;28;19920;-73
2022/05/07 04:28:20;;;;;;;;;;;;;;;24.39;22.02;100263.31;5095936;28;19970;-74
2022/05/07 04:30:45;;;;;;;;;;;;;;;24.40;22.09;100262.19;5095940;28;20377;-73
2022/05/07 04:33:11;;;;;;;;;;;;;;;24.38;22.19;100261.66;5095672;28;19963;-75
2022/05/07 04:35:36;;;;;;;;;;;;;;;24.38;22.15;100250.75;5095500;28;19916;-74
2022/05/07 04:38:01;;;;;;;;;;;;;;;24.39;22.15;100252.38;5095998;28;19928;-73
2022/05/07 04:40:27;;;;;;;;;;;;;;;24.40;22.32;100250.47;5095458;28;19919;-75
2022/05/07 04:42:52;;;;;;;;;;;;;;;24.41;22.40;100246.66;5095768;28;20011;-74
2022/05/07 04:45:18;;;;;;;;;;;;;;;24.39;22.36;100241.47;5095737;28;19924;-74
2022/05/07 04:47:43;;;;;;;;;;;;;;;24.40;22.20;100248.53;5095573;28;19916;-74
2022/05/07 04:50:08;;;;;;;;;;;;;;;24.39;22.28;100244.19;5078118;28;20262;-74
2022/05/07 04:52:34;;;;;;;;;;;;;;;24.39;22.55;100236.00;5095178;28;19916;-73
2022/05/07 04:54:59;;;;;;;;;;;;;;;24.40;22.41;100237.63;5095585;28;19970;-74
2022/05/07 04:57:25;;;;;;;;;;;;;;;24.42;22.44;100240.06;5095406;28;20394;-75
2022/05/07 04:59:50;;;;;;;;;;;;;;;24.40;22.39;100237.63;5095429;28;20351;-73
2022/05/07 05:02:15;;;;;;;;;;;;;;;24.41;22.39;100230.25;5095157;28;19985;-75
2022/05/07 05:04:40;;;;;;;;;;;;;;;24.41;22.48;100222.88;5095278;28;20359;-74
2022/05/07 05:07:06;;;;;;;;;;;;;;;24.42;22.66;100215.47;5095354;28;20351;-74
2022/05/07 05:09:31;;;;;;;;;;;;;;;24.41;22.71;100214.69;5077146;28;19927;-73
2022/05/07 05:11:56;;;;;;;;;;;;;;;24.43;22.67;100211.66;5094902;28;19916;-73
2022/05/07 05:17:05;;;;;;;;;;;;;;;24.41;22.62;100219.34;5094790;28;19961;-73
2022/05/07 05:19:30;;;;;;;;;;;;;;;24.40;22.61;100213.03;5076687;28;19920;-74
2022/05/07 05:21:56;;;;;;;;;;;;;;;24.41;22.83;100211.13;5095086;28;19916;-75
2022/05/07 05:24:21;;;;;;;;;;;;;;;24.41;22.69;100213.88;5090968;28;20383;-73
2022/05/07 05:26:46;;;;;;;;;;;;;;;24.40;22.83;100206.75;5074652;28;20248;-74
2022/05/07 05:29:11;;;;;;;;;;;;;;;24.42;22.74;100207.28;5074643;28;20422;-73
2022/05/07 05:31:37;;;;;;;;;;;;;;;24.42;22.76;100204.56;5074584;28;19920;-73
2022/05/07 05:34:02;;;;;;;;;;;;;;;24.42;22.86;100204.56;5074121;28;19920;-73
2022/05/07 05:36:30;;;;;;;;;;;;;;;24.43;22.92;100195.28;5074637;28;19944;-73
2022/05/07 05:38:56;;;;;;;;;;;;;;;24.41;22.86;100190.09;5074483;28;19916;-76
2022/05/07 05:41:21;;;;;;;;;;;;;;;24.41;23.04;100181.91;5074360;28;19962;-73
2022/05/07 05:43:46;;;;;;;;;;;;;;;24.40;22.99;100185.72;5078933;28;19961;-75
2022/05/07 05:46:14;;;;;;;;;;;;;;;24.41;22.95;100186.56;5094690;28;19964;-73
2022/05/07 05:48:39;;;;;;;;;;;;;;;24.39;22.75;100175.91;5094224;28;19917;-74
2022/05/07 05:51:04;;;;;;;;;;;;;;;24.40;22.95;100172.06;5094188;28;19961;-74
2022/05/07 05:53:30;;;;;;;;;;;;;;;24.41;23.06;100170.97;5094560;28;19923;-74
2022/05/07 05:55:56;;;;;;;;;;;;;;;24.43;22.88;100168.78;5094297;28;19916;-75
2022/05/07 05:58:21;;;;;;;;;;;;;;;24.43;22.98;100163.31;5094556;28;20051;-74
2022/05/07 06:00:46;;;;;;;;;;;;;;;24.42;22.81;100161.66;5094092;28;19917;-75
2022/05/07 06:03:12;;;;;;;;;;;;;;;24.45;22.97;100152.91;5094030;28;19920;-74
2022/05/07 06:05:37;;;;;;;;;;;;;;;24.45;22.93;100155.63;5094373;28;19916;-74
2022/05/07 06:08:02;;;;;;;;;;;;;;;24.45;22.94;100150.19;5094364;28;20419;-74
2022/05/07 06:10:27;;;;;;;;;;;;;;;24.47;22.99;100155.34;5076324;28;19930;-74
2022/05/07 06:12:53;;;;;;;;;;;;;;;24.47;22.91;100147.97;5094141;28;19916;-73
2022/05/07 06:15:18;;;;;;;;;;;;;;;24.48;22.91;100149.59;5094306;28;20086;-74
2022/05/07 06:17:43;;;;;;;;;;;;;;;24.49;22.98;100143.06;5093953;28;19923;-74
2022/05/07 06:20:08;;;;;;;;;;;;;;;24.50;22.70;100136.47;5094568;28;19916;-74
2022/05/07 06:22:34;;;;;;;;;;;;;;;24.50;22.70;100133.75;5094850;28;19999;-76
2022/05/07 06:27:43;;;;;;;;;;;;;;;24.51;22.80;100120.91;5118356;28;19960;-73
2022/05/07 06:30:08;;;;;;;;;;;;;;;24.52;22.55;100134.25;5118799;28;19919;-75
2022/05/07 06:32:34;;;;;;;;;;;;;;;24.54;22.83;100134.00;5118729;28;19923;-73
2022/05/07 06:35:00;;;;;;;;;;;;;;;24.54;22.94;100134.84;5118536;28;20368;-74
2022/05/07 06:37:25;;;;;;;;;;;;;;;24.54;22.55;100134.84;5118573;28;20354;-73
2022/05/07 06:39:51;;;;;;;;;;;;;;;24.57;22.56;100138.09;5118692;28;19938;-74
2022/05/07 06:42:16;;;;;;;;;;;;;;;24.55;22.43;100128.25;5118197;28;19959;-73
2022/05/07 06:44:41;;;;;;;;;;;;;;;24.57;22.58;100121.72;5106591;28;19992;-74
2022/05/07 06:47:07;;;;;;;;;;;;;;;24.58;22.67;100120.59;5097697;28;20337;-74
2022/05/07 06:49:32;;;;;;;;;;;;;;;24.59;22.76;100122.22;5098072;28;19920;-73
2022/05/07 06:51:57;;;;;;;;;;;;;;;24.59;22.61;100116.75;5098333;28;20359;-75
2022/05/07 06:54:22;;;;;;;;;;;;;;;24.60;22.37;100123.88;5097843;28;20048;-74
2022/05/07 06:56:48;;;;;;;;;;;;;;;24.60;22.64;100118.41;5097930;28;20385;-74
2022/05/07 06:59:13;;;;;;;;;;;;;;;24.61;22.34;100125.47;5097969;28;20244;-75
2022/05/07 07:01:38;;;;;;;;;;;;;;;24.63;22.34;100112.34;5097787;28;20006;-74
2022/05/07 07:04:04;;;;;;;;;;;;;;;24.63;22.50;100117.81;5097790;28;19951;-74
2022/05/07 07:06:29;;;;;;;;;;;;;;;24.63;22.39;100117.81;5097706;28;19923;-73
2022/05/07 07:08:55;;;;;;;;;;;;;;;24.65;22.21;100115.63;5097428;28;19916;-74
2022/05/07 07:11:20;;;;;;;;;;;;;;;24.65;22.25;100108.25;5097436;28;19916;-74
2022/05/07 07:13:47;;;;;;;;;;;;;;;24.66;22.17;100106.31;5097612;28;19923;-73
2022/05/07 07:16:12;;;;;;;;;;;;;;;24.66;22.25;100106.31;5097616;28;19963;-75
2022/05/07 07:18:37;;;;;;;;;;;;;;;24.68;22.25;100109.56;5097718;28;19993;-73
2022/05/07 07:21:03;;;;;;;;;;;;;;;24.68;22.10;100099.47;5097722;28;20393;-73
2022/05/07 07:23:28;;;;;;;;;;;;;;;24.68;22.26;100095.91;5107659;28;19924;-73
2022/05/07 07:25:53;;;;;;;;;;;;;;;24.69;21.93;100100.28;5105053;28;19939;-74
2022/05/07 07:28:18;;;;;;;;;;;;;;;24.70;22.23;100093.72;5101520;28;19908;-75
2022/05/07 07:30:44;;;;;;;;;;;;;;;24.69;22.19;100087.41;5101792;28;19920;-74
2022/05/07 07:33:11;;;;;;;;;;;;;;;24.70;21.91;100091.00;5101441;28;19905;-75
2022/05/07 07:35:36;;;;;;;;;;;;;;;24.72;22.17;100086.03;5101427;28;19920;-73
2022/05/07 07:38:02;;;;;;;;;;;;;;;24.71;22.16;100077.00;5100648;28;19912;-74
2022/05/07 07:40:28;;;;;;;;;;;;;;;24.73;22.06;100084.91;5101231;28;19908;-75
2022/05/07 07:42:54;;;;;;;;;;;;;;;24.74;21.77;100081.09;5101449;28;19905;-74
2022/05/07 07:48:03;;;;;;;;;;;;;;;24.75;21.85;100066.34;5121845;28;19911;-76
2022/05/07 07:50:30;;;;;;;;;;;;;;;24.74;22.20;100070.16;5121689;28;19936;-74
2022/05/07 07:52:56;;;;;;;;;;;;;;;24.76;22.11;100061.69;5121429;28;19943;-74
2022/05/07 07:55:22;;;;;;;;;;;;;;;24.75;22.18;100060.88;5121530;28;19924;-75
2022/05/07 07:57:47;;;;;;;;;;;;;;;24.74;22.17;100062.78;5121379;28;19919;-75
2022/05/07 08:00:13;;;;;;;;;;;;;;;24.76;21.98;100062.47;5121079;28;19991;-74
2022/05/07 08:02:57;;;;;;;;;;;;;;;24.77;21.90;100061.38;5103812;28;19920;-74
2022/05/07 08:05:23;;;;;;;;;;;;;;;24.80;21.82;100060.81;5121212;28;19937;-74
2022/05/07 08:13:15;;;;;;;;;;;;;;;24.82;21.87;100039.47;5096557;28;19923;-74
2022/05/07 08:15:42;;;;;;;;;;;;;;;24.83;22.02;100046.53;5096655;28;19916;-74
2022/05/07 08:18:07;;;;;;;;;;;;;;;24.84;21.96;100050.91;5096863;28;19920;-75
2022/05/07 08:20:32;;;;;;;;;;;;;;;24.84;21.96;100042.72;5096065;28;20358;-73
2022/05/07 08:22:57;;;;;;;;;;;;;;;24.86;21.67;100045.97;5096325;28;19920;-74
2022/05/07 08:25:23;;;;;;;;;;;;;;;24.85;21.86;100038.06;5108296;28;19920;-73
2022/05/07 08:27:48;;;;;;;;;;;;;;;24.86;21.76;100040.50;5116172;28;19922;-73
2022/05/07 08:30:13;;;;;;;;;;;;;;;24.86;21.72;100035.03;5116318;28;19916;-76
2022/05/07 08:32:38;;;;;;;;;;;;;;;24.87;21.80;100039.41;5116417;28;20342;-73
2022/05/07 08:35:04;;;;;;;;;;;;;;;24.90;21.93;100036.06;5116251;28;19981;-74
2022/05/07 08:37:29;;;;;;;;;;;;;;;24.90;21.67;100033.34;5115942;28;19916;-72
2022/05/07 08:40:01;;;;;;;;;;;;;;;24.91;21.65;100029.50;5116254;28;19923;-73
2022/05/07 08:42:27;;;;;;;;;;;;;;;24.93;21.78;100034.69;5115925;28;20373;-74
2022/05/07 08:44:53;;;;;;;;;;;;;;;24.93;21.67;100040.97;5098068;28;19919;-74
2022/05/07 08:47:18;;;;;;;;;;;;;;;24.93;21.57;100046.44;5115976;28;19916;-74
2022/05/07 08:49:44;;;;;;;;;;;;;;;24.99;21.52;100032.69;5096909;28;19923;-73
2022/05/07 08:52:11;;;;;;;;;;;;;;;24.96;21.67;100041.47;5115753;28;19965;-73
2022/05/07 08:54:36;;;;;;;;;;;;;;;24.97;21.47;100034.91;5097944;28;20094;-75
2022/05/07 08:57:01;;;;;;;;;;;;;;;24.97;21.74;100035.72;5114572;28;20432;-74
2022/05/07 08:59:28;;;;;;;;;;;;;;;24.98;21.84;100031.09;5115520;28;20382;-74
2022/05/07 09:01:53;;;;;;;;;;;;;;;24.97;21.62;100030.25;5114598;28;19924;-74
2022/05/07 09:04:18;;;;;;;;;;;;;;;25.01;21.80;100022.28;5115857;28;20393;-74
2022/05/07 09:06:44;;;;;;;;;;;;;;;25.02;21.78;100021.19;5115392;28;19961;-75
2022/05/07 09:09:09;;;;;;;;;;;;;;;25.03;21.94;100018.16;5114371;28;19916;-74
2022/05/07 09:11:43;;;;;;;;;;;;;;;25.04;21.96;100013.50;5115617;28;20363;-74
2022/05/07 09:14:09;;;;;;;;;;;;;;;25.06;21.96;100022.22;5115499;28;19969;-73
2022/05/07 09:16:41;;;;;;;;;;;;;;;25.06;22.09;100020.31;5115594;28;19915;-73
2022/05/07 09:19:06;;;;;;;;;;;;;;;25.05;22.20;100026.88;5115543;28;19954;-74
2022/05/07 09:21:32;;;;;;;;;;;;;;;25.06;22.43;100023.03;5113979;28;20370;-73
2022/05/07 09:23:57;;;;;;;;;;;;;;;25.05;22.36;100026.06;5114981;28;19957;-73
2022/05/07 09:26:24;;;;;;;;;;;;;;;25.04;22.37;100019.81;5114967;28;19923;-76
2022/05/07 09:28:50;;;;;;;;;;;;;;;25.04;22.46;100018.97;5115343;28;19923;-74
2022/05/07 09:31:28;;;;;;;;;;;;;;;25.07;22.43;100023.84;5097117;28;19922;-74
2022/05/07 09:33:54;;;;;;;;;;;;;;;25.06;22.50;100008.53;5114969;28;19923;-75
2022/05/07 09:36:20;;;;;;;;;;;;;;;25.07;22.40;100015.66;5114894;28;20274;-73
2022/05/07 09:38:48;;;;;;;;;;;;;;;25.04;22.64;100017.06;5096942;28;19916;-74
2022/05/07 09:41:20;;;;;;;;;;;;;;;25.03;22.69;100022.81;5115173;28;19938;-75
2022/05/07 09:43:46;;;;;;;;;;;;;;;25.06;22.77;100027.69;5114960;28;19920;-73
2022/05/07 09:46:11;;;;;;;;;;;;;;;25.06;22.55;100022.22;5096409;28;20366;-73
2022/05/07 09:48:38;;;;;;;;;;;;;;;25.06;22.58;100033.16;5115045;28;19932;-74
2022/05/07 09:51:03;;;;;;;;;;;;;;;25.05;22.81;100028.81;5096955;28;19916;-74
2022/05/07 09:58:57;;;;;;;;;;;;;;;24.97;23.26;100029.44;5114886;28;20281;-74
2022/05/07 10:01:24;;;;;;;;;;;;;;;24.97;23.32;100034.91;5114484;28;19920;-74
2022/05/07 10:04:08;;;;;;;;;;;;;;;24.96;23.46;100036.00;5114910;28;19916;-75
2022/05/07 10:06:50;;;;;;;;;;;;;;;24.94;23.56;100033.59;5114341;28;20374;-76
2022/05/07 10:09:15;;;;;;;;;;;;;;;24.91;23.40;100043.19;5096211;28;20358;-74
2022/05/07 10:11:40;;;;;;;;;;;;;;;24.91;23.67;100042.38;5114680;28;19916;-74
2022/05/07 10:14:06;;;;;;;;;;;;;;;24.90;23.68;100047.00;5096325;28;19915;-75
2022/05/07 10:16:31;;;;;;;;;;;;;;;24.91;23.89;100045.09;5114670;28;19916;-73
2022/05/07 10:18:57;;;;;;;;;;;;;;;24.92;23.84;100054.91;5114275;28;19922;-73
2022/05/07 10:21:23;;;;;;;;;;;;;;;24.89;23.84;100053.59;5096222;28;19920;-75
2022/05/07 10:23:57;;;;;;;;;;;;;;;24.88;24.32;100049.22;5114100;28;19923;-73
2022/05/07 10:26:24;;;;;;;;;;;;;;;24.89;24.05;100050.06;5114113;28;20362;-73
2022/05/07 10:28:49;;;;;;;;;;;;;;;24.87;24.15;100049.50;5114186;28;20366;-74
2022/05/07 10:31:15;;;;;;;;;;;;;;;24.87;24.17;100053.06;5114451;28;19923;-73
2022/05/07 10:33:40;;;;;;;;;;;;;;;24.85;24.28;100055.28;5114290;28;20390;-75
2022/05/07 10:36:09;;;;;;;;;;;;;;;24.85;24.47;100060.75;5115353;28;19916;-75
2022/05/07 10:38:36;;;;;;;;;;;;;;;24.84;24.48;100053.66;5115203;28;19974;-74
2022/05/07 10:41:07;;;;;;;;;;;;;;;24.83;24.65;100046.53;5114317;28;20354;-73
2022/05/07 10:43:33;;;;;;;;;;;;;;;24.83;24.69;100052.00;5114356;28;19999;-74
2022/05/07 10:46:02;;;;;;;;;;;;;;;24.82;24.86;100047.66;5114246;28;20315;-74
2022/05/07 10:48:27;;;;;;;;;;;;;;;24.81;24.92;100048.75;5114058;28;20441;-74
2022/05/07 10:50:53;;;;;;;;;;;;;;;24.80;24.94;100047.16;5114065;28;20010;-74
2022/05/07 10:53:19;;;;;;;;;;;;;;;24.79;24.82;100050.19;5114193;28;19966;-73
2022/05/07 10:55:44;;;;;;;;;;;;;;;24.78;25.07;100054.00;5113897;28;20008;-75
2022/05/07 10:58:09;;;;;;;;;;;;;;;24.77;25.06;100045.00;5114154;28;19915;-75
2022/05/07 11:00:35;;;;;;;;;;;;;;;24.76;25.00;100043.34;5114097;28;19916;-73
2022/05/07 11:03:01;;;;;;;;;;;;;;;24.75;25.37;100049.94;5114230;28;19961;-73
2022/05/07 11:05:31;;;;;;;;;;;;;;;24.77;25.37;100044.16;5114138;28;20315;-74
2022/05/07 11:07:59;;;;;;;;;;;;;;;24.74;25.41;100042.84;5096086;28;19920;-73
2022/05/07 11:10:25;;;;;;;;;;;;;;;24.74;25.31;100048.31;5114092;28;19972;-75
2022/05/07 11:12:50;;;;;;;;;;;;;;;24.74;25.37;100042.84;5114403;28;19920;-75
2022/05/07 11:15:22;;;;;;;;;;;;;;;24.71;25.30;100043.41;5117914;28;19923;-74
2022/05/07 11:17:47;;;;;;;;;;;;;;;24.71;25.35;100051.63;5117863;28;19920;-74
2022/05/07 11:20:13;;;;;;;;;;;;;;;24.71;25.56;100046.94;5099611;28;20353;-74
2022/05/07 11:22:39;;;;;;;;;;;;;;;24.72;25.43;100047.78;5117811;28;19954;-72
2022/05/07 11:25:05;;;;;;;;;;;;;;;24.70;25.45;100047.28;5117350;28;19926;-74
2022/05/07 11:27:33;;;;;;;;;;;;;;;24.70;25.62;100048.06;5117625;28;19916;-74
2022/05/07 11:30:00;;;;;;;;;;;;;;;24.69;25.58;100051.91;5117849;28;19923;-73
2022/05/07 11:32:34;;;;;;;;;;;;;;;24.67;25.44;100054.09;5117227;28;20392;-74
2022/05/07 11:35:00;;;;;;;;;;;;;;;24.68;25.63;100063.13;5117445;28;19922;-75
2022/05/07 11:37:25;;;;;;;;;;;;;;;24.69;25.62;100059.28;5117179;28;19916;-73
2022/05/07 11:39:50;;;;;;;;;;;;;;;24.68;25.72;100058.47;5099324;28;19915;-75
2022/05/07 11:42:32;;;;;;;;;;;;;;;24.69;25.77;100056.56;5117445;28;20439;-73
2022/05/07 11:47:51;;;;;;;;;;;;;;;24.66;25.47;100052.47;5117341;28;19924;-72
2022/05/07 11:50:24;;;;;;;;;;;;;;;24.68;25.76;100049.44;5116890;28;20297;-74
2022/05/07 11:52:49;;;;;;;;;;;;;;;24.68;25.65;100054.91;5117171;28;19916;-74
2022/05/07 11:55:14;;;;;;;;;;;;;;;24.67;25.52;100058.78;5116700;28;19916;-74
2022/05/07 11:57:44;;;;;;;;;;;;;;;24.65;25.92;100058.25;5117120;28;19966;-74
2022/05/07 12:00:16;;;;;;;;;;;;;;;24.66;25.79;100047.00;5116759;28;19920;-75
2022/05/07 12:02:48;;;;;;;;;;;;;;;24.66;25.86;100046.19;5116984;28;19962;-74
2022/05/07 12:05:13;;;;;;;;;;;;;;;24.66;25.67;100048.94;5116960;28;19920;-74
2022/05/07 12:07:39;;;;;;;;;;;;;;;24.64;25.90;100049.22;5116816;28;19930;-75
2022/05/07 12:10:04;;;;;;;;;;;;;;;24.65;25.61;100039.94;5116508;28;19923;-74
2022/05/07 12:12:29;;;;;;;;;;;;;;;24.65;25.68;100045.41;5116522;28;19916;-73
2022/05/07 12:14:54;;;;;;;;;;;;;;;24.64;25.72;100032.81;5116733;28;19961;-75
2022/05/07 12:20:04;;;;;;;;;;;;;;;24.64;25.58;100042.94;5116800;28;20274;-74
2022/05/07 12:30:41;;;;;;;;;;;;;;;24.61;25.98;100038.06;5116284;28;19933;-76
2022/05/07 12:33:07;;;;;;;;;;;;;;;24.63;26.06;100035.84;5116363;28;20014;-72
2022/05/07 12:35:32;;;;;;;;;;;;;;;24.61;25.99;100035.31;5116466;28;19916;-75
2022/05/07 12:37:57;;;;;;;;;;;;;;;24.62;25.85;100039.69;5116443;28;20414;-74
2022/05/07 12:40:23;;;;;;;;;;;;;;;24.61;26.13;100029.88;5116087;28;19942;-74
2022/05/07 12:42:48;;;;;;;;;;;;;;;24.62;26.15;100034.25;5116235;28;19919;-75
2022/05/07 12:45:17;;;;;;;;;;;;;;;24.63;26.22;100041.31;5115769;28;19916;-73
2022/05/07 12:47:42;;;;;;;;;;;;;;;24.62;26.00;100029.56;5115825;28;20403;-74
2022/05/07 12:50:07;;;;;;;;;;;;;;;24.56;26.10;100025.28;5116043;28;19966;-76
2022/05/07 12:52:32;;;;;;;;;;;;;;;24.60;26.46;100030.97;5115764;28;20389;-74
2022/05/07 12:54:58;;;;;;;;;;;;;;;24.61;26.36;100018.94;5115663;28;20014;-75
2022/05/07 12:57:23;;;;;;;;;;;;;;;24.63;26.56;100030.38;5115519;28;19922;-74
2022/05/07 12:59:48;;;;;;;;;;;;;;;24.62;26.46;100023.31;5116036;28;19930;-75
2022/05/07 13:02:14;;;;;;;;;;;;;;;24.61;26.82;100030.69;5115897;28;19916;-74
2022/05/07 13:04:39;;;;;;;;;;;;;;;24.61;26.68;100027.97;5115805;28;19916;-74
2022/05/07 13:07:04;;;;;;;;;;;;;;;24.60;26.75;100020.06;5115612;28;19984;-74
2022/05/07 13:09:29;;;;;;;;;;;;;;;24.61;26.98;100016.22;5097383;28;20007;-74
2022/05/07 13:11:55;;;;;;;;;;;;;;;24.61;26.88;100027.97;5115664;28;19915;-74